1861 NOT_NAMED (1861011S17051)


IBTrACS version v04r00. Visit IBTrACS website for data access.
Please direct all questions to the IBTrACS Q and A forum

Storm track - Intensity - Wind Radii - Intensity Data - Source Data - All data

Summary Information

Storm ID 1861011S17051
Start Jan 11 06Z
End Jan 17 06Z
ATCF IDs
Track status Best track data.

Storm track plot

Map of storm track

Intensity plots

No Intensity information for this storm


Radial wind information

No radial wind information for this storm


Position and Intensity Table

BASIN ISO_TIME_________ NATURE LAT LON
degrees north degrees east
SI 1861-01-11 06:00:00 NR -17.00 50.60
SI 09:00:00 NR -16.93 50.59
SI 12:00:00 NR -16.87 50.58
SI 15:00:00 NR -16.84 50.58
SI 18:00:00 NR -16.85 50.59
SI 21:00:00 NR -16.91 50.63
SI 1861-01-12 00:00:00 NR -17.03 50.68
SI 03:00:00 NR -17.22 50.77
SI 06:00:00 NR -17.50 50.90
SI 09:00:00 NR -17.88 51.07
SI 12:00:00 NR -18.34 51.28
SI 15:00:00 NR -18.86 51.54
SI 18:00:00 NR -19.44 51.86
SI 21:00:00 NR -20.05 52.24
SI 1861-01-13 00:00:00 NR -20.67 52.68
SI 03:00:00 NR -21.29 53.20
SI 06:00:00 NR -21.90 53.80
SI 09:00:00 NR -22.43 54.47
SI 12:00:00 NR -22.96 55.23
SI 15:00:00 NR -23.47 56.06
SI 18:00:00 NR -23.97 56.95
SI 21:00:00 NR -24.45 57.89
SI 1861-01-14 00:00:00 NR -24.92 58.85
SI 03:00:00 NR -25.37 59.82
SI 06:00:00 NR -25.80 60.80
SI 09:00:00 NR -26.21 61.71
SI 12:00:00 NR -26.61 62.64
SI 15:00:00 NR -26.99 63.57
SI 18:00:00 NR -27.35 64.50
SI 21:00:00 NR -27.70 65.44
SI 1861-01-15 00:00:00 NR -28.04 66.39
SI 03:00:00 NR -28.38 67.34
SI 06:00:00 NR -28.70 68.30
SI 09:00:00 NR -29.07 69.38
SI 12:00:00 NR -29.43 70.48
SI 15:00:00 NR -29.78 71.58
SI 18:00:00 NR -30.11 72.65
SI 21:00:00 NR -30.41 73.66
SI 1861-01-16 00:00:00 NR -30.68 74.59
SI 03:00:00 NR -30.91 75.41
SI 06:00:00 NR -31.10 76.10
SI 09:00:00 NR -31.25 76.63
SI 12:00:00 NR -31.35 77.01
SI 15:00:00 NR -31.42 77.27
SI 18:00:00 NR -31.47 77.42
SI 21:00:00 NR -31.50 77.49
SI 1861-01-17 00:00:00 NR -31.51 77.49
SI 03:00:00 NR -31.51 77.46
SI 06:00:00 NR -31.50 77.40

Source Information

Agency Information
USA
TOKYO
CMA
HKO
NEWDELHI
REUNION WMO-Best-Tracks.txt:Line=321:xxxx861048
BOM
NADI
WELLINGTON
DS824
TD9636
TD9635
NEUMANN
MLC

All available IBTrACS Data

SEASON BASIN SUBBASIN ISO_TIME_________ NATURE LAT LON WMO AGENCY DIST2LAND LANDFALL IFLAG USA SSHS REUNION LAT REUNION LON REUNION TYPE REUNION TNUM STORM SPEED STORM DIR
Year degrees north degrees east km km 1 degrees north degrees east 1 kts degrees
1861 SI MM 1861-01-11 06:00:00 NR -17.00 50.60 reunion 88 85 _____O________ -1 -17.00 50.60 99 9.90 1 0
1861 SI MM 09:00:00 NR -16.93 50.59 85 85 _____P________ -1 -16.93 50.59 99 1 358
1861 SI MM 12:00:00 NR -16.87 50.58 85 85 _____P________ -1 -16.87 50.58 99 1 352
1861 SI MM 15:00:00 NR -16.84 50.58 85 85 _____P________ -1 -16.84 50.58 99 0 0
1861 SI MM 18:00:00 NR -16.85 50.59 85 85 _____P________ -1 -16.85 50.59 99 1 156
1861 SI MM 21:00:00 NR -16.91 50.63 85 85 _____P________ -1 -16.91 50.63 99 2 152
1861 SI MM 1861-01-12 00:00:00 NR -17.03 50.68 98 98 _____P________ -1 -17.03 50.68 99 3 156
1861 SI MM 03:00:00 NR -17.22 50.77 115 115 _____P________ -1 -17.22 50.77 99 5 157
1861 SI MM 06:00:00 NR -17.50 50.90 reunion 140 140 _____O________ -1 -17.50 50.90 99 9.90 7 157
1861 SI MM 09:00:00 NR -17.88 51.07 170 170 _____P________ -1 -17.88 51.07 99 9 157
1861 SI MM 12:00:00 NR -18.34 51.28 200 200 _____P________ -1 -18.34 51.28 99 11 155
1861 SI MM 15:00:00 NR -18.86 51.54 234 234 _____P________ -1 -18.86 51.54 99 12 153
1861 SI MM 18:00:00 NR -19.44 51.86 294 294 _____P________ -1 -19.44 51.86 99 14 151
1861 SI MM 21:00:00 NR -20.05 52.24 335 265 _____P________ -1 -20.05 52.24 99 15 148
1861 SI MM 1861-01-13 00:00:00 NR -20.67 52.68 263 208 _____P________ -1 -20.67 52.68 99 15 144
1861 SI MM 03:00:00 NR -21.29 53.20 208 168 _____P________ -1 -21.29 53.20 99 16 140
1861 SI MM 06:00:00 NR -21.90 53.80 reunion 168 145 _____O________ -1 -21.90 53.80 99 9.90 16 134
1861 SI MM 09:00:00 NR -22.43 54.47 148 148 _____P________ -1 -22.43 54.47 99 17 129
1861 SI MM 12:00:00 NR -22.96 55.23 183 180 _____P________ -1 -22.96 55.23 99 18 125
1861 SI MM 15:00:00 NR -23.47 56.06 240 240 _____P________ -1 -23.47 56.06 99 19 123
1861 SI MM 18:00:00 NR -23.97 56.95 324 324 _____P________ -1 -23.97 56.95 99 19 121
1861 SI MM 21:00:00 NR -24.45 57.89 417 417 _____P________ -1 -24.45 57.89 99 20 119
1861 SI MM 1861-01-14 00:00:00 NR -24.92 58.85 504 504 _____P________ -1 -24.92 58.85 99 20 118
1861 SI MM 03:00:00 NR -25.37 59.82 588 588 _____P________ -1 -25.37 59.82 99 20 116
1861 SI MM 06:00:00 NR -25.80 60.80 reunion 671 671 _____O________ -1 -25.80 60.80 99 9.90 19 116
1861 SI MM 09:00:00 NR -26.21 61.71 756 756 _____P________ -1 -26.21 61.71 99 18 116
1861 SI MM 12:00:00 NR -26.61 62.64 844 844 _____P________ -1 -26.61 62.64 99 18 115
1861 SI MM 15:00:00 NR -26.99 63.57 941 941 _____P________ -1 -26.99 63.57 99 18 114
1861 SI MM 18:00:00 NR -27.35 64.50 1034 1034 _____P________ -1 -27.35 64.50 99 18 113
1861 SI MM 21:00:00 NR -27.70 65.44 1120 1120 _____P________ -1 -27.70 65.44 99 18 112
1861 SI MM 1861-01-15 00:00:00 NR -28.04 66.39 1215 1215 _____P________ -1 -28.04 66.39 99 18 112
1861 SI MM 03:00:00 NR -28.38 67.34 1311 1311 _____P________ -1 -28.38 67.34 99 18 111
1861 SI MM 06:00:00 NR -28.70 68.30 reunion 1408 1408 _____O________ -1 -28.70 68.30 99 9.90 19 111
1861 SI MM 09:00:00 NR -29.07 69.38 1520 1520 _____P________ -1 -29.07 69.38 99 20 111
1861 SI MM 12:00:00 NR -29.43 70.48 1626 1626 _____P________ -1 -29.43 70.48 99 20 110
1861 SI MM 15:00:00 NR -29.78 71.58 1739 1739 _____P________ -1 -29.78 71.58 99 20 110
1861 SI MM 18:00:00 NR -30.11 72.65 1838 1838 _____P________ -1 -30.11 72.65 99 19 109
1861 SI MM 21:00:00 NR -30.41 73.66 1945 1945 _____P________ -1 -30.41 73.66 99 18 109
1861 SI MM 1861-01-16 00:00:00 NR -30.68 74.59 2036 2036 _____P________ -1 -30.68 74.59 99 16 108
1861 SI MM 03:00:00 NR -30.91 75.41 2063 2053 _____P________ -1 -30.91 75.41 99 14 108
1861 SI MM 06:00:00 NR -31.10 76.10 reunion 2057 2050 _____O________ -1 -31.10 76.10 99 9.90 11 108
1861 SI MM 09:00:00 NR -31.25 76.63 2056 2047 _____P________ -1 -31.25 76.63 99 8 108
1861 SI MM 12:00:00 NR -31.35 77.01 2043 2043 _____P________ -1 -31.35 77.01 99 6 108
1861 SI MM 15:00:00 NR -31.42 77.27 2049 2041 _____P________ -1 -31.42 77.27 99 4 109
1861 SI MM 18:00:00 NR -31.47 77.42 2041 2041 _____P________ -1 -31.47 77.42 99 2 111
1861 SI MM 21:00:00 NR -31.50 77.49 2043 2043 _____P________ -1 -31.50 77.49 99 1 117
1861 SI MM 1861-01-17 00:00:00 NR -31.51 77.49 2043 2043 _____P________ -1 -31.51 77.49 99 0 0
1861 SI MM 03:00:00 NR -31.51 77.46 2043 2041 _____P________ -1 -31.51 77.46 99 1 275
1861 SI MM 06:00:00 NR -31.50 77.40 reunion 2041 _____O________ -1 -31.50 77.40 99 9.90 1 276